Time;durP1;ratioP1;P1;durP2;ratioP2;P2;SDS_P1;SDS_P2;PMS_P1;PMS_P2;Temp;Humidity;BMP_temperature;BMP_pressure;BME280_temperature;BME280_humidity;BME280_pressure;Samples;Min_cycle;Max_cycle;Signal;HPM_P1;HPM_P2
2022/11/03 00:00:59;;;;;;;43.07;21.00;;;5.80;99.90;;;;;;4417102;28;658752;-66
2022/11/03 00:03:46;;;;;;;48.23;20.50;;;5.70;99.90;;;;;;4388061;28;657578;-66
2022/11/03 00:06:33;;;;;;;45.72;19.90;;;5.80;99.90;;;;;;4400345;28;658558;-65
2022/11/03 00:09:22;;;;;;;41.73;19.57;;;5.80;99.90;;;;;;4398072;28;657497;-66
2022/11/03 00:12:10;;;;;;;46.13;18.77;;;5.80;99.90;;;;;;4404220;28;657649;-66
2022/11/03 00:14:57;;;;;;;46.17;21.60;;;5.70;99.90;;;;;;4420531;28;658625;-67
2022/11/03 00:17:46;;;;;;;42.30;20.83;;;5.60;99.90;;;;;;4410575;28;657253;-65
2022/11/03 00:20:33;;;;;;;41.10;20.23;;;5.60;99.90;;;;;;4389347;28;658337;-65
2022/11/03 00:23:20;;;;;;;47.42;21.10;;;5.50;99.90;;;;;;4398972;28;658434;-66
2022/11/03 00:26:10;;;;;;;41.43;19.00;;;5.50;99.90;;;;;;4420159;28;656942;-66
2022/11/03 00:28:59;;;;;;;35.63;18.42;;;5.30;99.90;;;;;;4392926;28;658170;-66
2022/11/03 00:31:46;;;;;;;43.43;19.37;;;5.20;99.90;;;;;;4395305;28;657551;-66
2022/11/03 00:34:33;;;;;;;39.90;19.25;;;5.10;99.90;;;;;;4415274;28;658629;-66
2022/11/03 00:37:20;;;;;;;40.23;19.87;;;5.10;99.90;;;;;;4392681;28;657352;-66
2022/11/03 00:40:09;;;;;;;38.10;19.27;;;5.10;99.90;;;;;;4411988;28;657662;-66
2022/11/03 00:42:58;;;;;;;44.80;18.87;;;5.00;99.90;;;;;;4390095;28;658647;-66
2022/11/03 00:45:45;;;;;;;44.27;20.83;;;5.00;99.90;;;;;;4391030;28;657606;-66
2022/11/03 00:48:32;;;;;;;51.10;22.40;;;5.00;99.90;;;;;;4409903;28;658365;-66
2022/11/03 00:51:21;;;;;;;45.40;20.87;;;4.90;99.90;;;;;;4403355;28;657652;-66
2022/11/03 00:54:08;;;;;;;56.40;23.40;;;4.90;99.90;;;;;;4410593;28;658401;-66
2022/11/03 00:56:56;;;;;;;54.47;21.27;;;4.80;99.90;;;;;;4391186;28;658077;-66
2022/11/03 00:59:44;;;;;;;44.70;21.20;;;4.80;99.90;;;;;;4416600;28;658587;-66
2022/11/03 01:02:31;;;;;;;52.17;22.33;;;4.80;99.90;;;;;;4383045;28;658078;-65
2022/11/03 01:08:23;;;;;;;57.17;23.77;;;4.80;99.90;;;;;;4385719;28;657866;-66
2022/11/03 01:14:16;;;;;;;53.13;23.70;;;4.80;99.90;;;;;;4388554;28;657700;-66
2022/11/03 01:17:06;;;;;;;53.00;23.77;;;4.70;99.90;;;;;;4404165;28;658962;-65
2022/11/03 01:19:53;;;;;;;56.60;25.10;;;4.70;99.90;;;;;;4383101;28;658060;-65
2022/11/03 01:22:40;;;;;;;54.73;23.97;;;4.70;99.90;;;;;;4383270;28;657928;-65
2022/11/03 01:25:27;;;;;;;51.67;25.17;;;4.70;99.90;;;;;;4396547;28;658279;-66
2022/11/03 01:28:15;;;;;;;60.80;27.60;;;4.70;99.90;;;;;;4404700;28;658182;-66
2022/11/03 01:31:04;;;;;;;57.37;26.70;;;4.70;99.90;;;;;;4414382;28;658578;-66
2022/11/03 01:33:53;;;;;;;59.23;25.90;;;4.80;99.90;;;;;;4382117;28;657659;-66
2022/11/03 01:36:40;;;;;;;51.87;25.00;;;4.80;99.90;;;;;;4388901;28;658193;-66
2022/11/03 01:39:27;;;;;;;52.85;24.33;;;4.90;99.90;;;;;;4407363;28;659937;-65
2022/11/03 01:42:14;;;;;;;50.97;24.07;;;4.90;99.90;;;;;;4408305;28;657662;-65
2022/11/03 01:45:02;;;;;;;50.47;23.73;;;4.80;99.90;;;;;;4390708;28;657735;-66
2022/11/03 01:47:49;;;;;;;52.40;24.73;;;4.80;99.90;;;;;;4410064;28;657601;-66
2022/11/03 01:50:37;;;;;;;51.27;24.23;;;4.90;99.90;;;;;;4385576;28;657275;-66
2022/11/03 01:53:24;;;;;;;50.87;23.40;;;4.90;99.90;;;;;;4406902;28;657594;-66
2022/11/03 01:56:12;;;;;;;56.40;23.33;;;4.90;99.90;;;;;;4391987;28;658623;-66
2022/11/03 01:58:59;;;;;;;53.20;23.13;;;4.80;99.90;;;;;;4404311;28;657893;-66
2022/11/03 02:01:46;;;;;;;46.37;22.27;;;4.70;99.90;;;;;;4392633;28;657721;-66
2022/11/03 02:04:33;;;;;;;48.07;22.83;;;4.70;99.90;;;;;;4414927;28;658269;-66
2022/11/03 02:07:24;;;;;;;56.60;23.67;;;4.70;99.90;;;;;;4394954;28;658090;-66
2022/11/03 02:10:11;;;;;;;48.77;23.37;;;4.80;99.90;;;;;;4392090;28;657668;-66
2022/11/03 02:12:58;;;;;;;52.70;23.20;;;4.90;99.90;;;;;;4416623;28;658315;-66
2022/11/03 02:15:46;;;;;;;50.83;22.70;;;5.00;99.90;;;;;;4390249;28;657859;-66
2022/11/03 02:18:33;;;;;;;53.03;21.90;;;4.90;99.90;;;;;;4410655;28;658015;-66
2022/11/03 02:21:23;;;;;;;54.63;21.33;;;4.80;99.90;;;;;;4387733;28;657527;-66
2022/11/03 02:24:13;;;;;;;44.07;20.23;;;4.70;99.90;;;;;;4390534;28;657815;-66
2022/11/03 02:27:02;;;;;;;48.10;21.03;;;4.60;99.90;;;;;;4384520;28;658366;-66
2022/11/03 02:29:49;;;;;;;50.00;21.07;;;4.70;99.90;;;;;;4412498;28;657732;-66
2022/11/03 02:32:40;;;;;;;42.00;20.17;;;4.60;99.90;;;;;;4388565;28;657591;-66
2022/11/03 02:35:29;;;;;;;50.90;21.77;;;4.50;99.90;;;;;;4392072;28;658798;-66
2022/11/03 02:38:16;;;;;;;41.78;19.35;;;4.50;99.90;;;;;;4393330;28;657396;-66
2022/11/03 02:41:05;;;;;;;49.10;20.30;;;4.40;99.90;;;;;;4412404;28;657437;-66
2022/11/03 02:43:54;;;;;;;46.63;19.87;;;4.40;99.90;;;;;;4394024;28;658377;-66
2022/11/03 02:46:41;;;;;;;41.77;19.10;;;4.40;99.90;;;;;;4382816;28;657630;-66
2022/11/03 02:49:28;;;;;;;43.63;20.37;;;4.30;99.90;;;;;;4410163;28;658109;-66
2022/11/03 02:52:35;;;;;;;43.17;18.97;;;4.30;99.90;;;;;;4393517;28;657503;-66
2022/11/03 02:55:27;;;;;;;45.33;19.23;;;4.20;99.90;;;;;;4387090;28;657785;-66
2022/11/03 02:58:16;;;;;;;41.85;18.63;;;4.10;99.90;;;;;;4375070;28;657624;-66
2022/11/03 03:01:17;;;;;;;46.03;19.37;;;4.10;99.90;;;;;;4387582;28;658532;-66
2022/11/03 03:04:06;;;;;;;46.83;18.38;;;4.00;99.90;;;;;;4389074;28;657387;-66
2022/11/03 03:06:54;;;;;;;43.37;18.20;;;4.00;99.90;;;;;;4389536;28;658860;-66
2022/11/03 03:09:43;;;;;;;41.90;18.27;;;4.00;99.90;;;;;;4391998;28;657892;-66
2022/11/03 03:12:31;;;;;;;39.67;19.27;;;3.90;99.90;;;;;;4390298;28;657592;-66
2022/11/03 03:15:18;;;;;;;43.00;18.70;;;4.00;99.90;;;;;;4414072;28;658161;-66
2022/11/03 03:18:11;;;;;;;39.97;18.60;;;3.90;99.90;;;;;;4392814;28;657461;-66
2022/11/03 03:21:01;;;;;;;41.80;19.17;;;3.80;99.90;;;;;;4380699;28;658236;-66
2022/11/03 03:23:50;;;;;;;47.00;22.13;;;3.80;99.90;;;;;;4373785;28;657951;-66
2022/11/03 03:26:39;;;;;;;48.53;24.58;;;3.80;99.90;;;;;;4389499;28;658505;-66
2022/11/03 03:29:27;;;;;;;56.63;27.50;;;3.80;99.90;;;;;;4386307;28;657382;-66
2022/11/03 03:32:15;;;;;;;55.87;25.70;;;3.80;99.90;;;;;;4411497;28;657511;-66
2022/11/03 03:35:06;;;;;;;56.50;26.50;;;3.70;99.90;;;;;;4390568;28;657873;-66
2022/11/03 03:37:54;;;;;;;56.83;26.92;;;3.70;99.90;;;;;;4385110;28;658314;-66
2022/11/03 03:40:42;;;;;;;59.10;24.63;;;3.70;99.90;;;;;;4381141;28;657456;-66
2022/11/03 03:43:30;;;;;;;48.90;24.40;;;3.60;99.90;;;;;;4409612;28;657730;-66
2022/11/03 03:46:18;;;;;;;52.43;24.10;;;3.50;99.90;;;;;;4410649;28;658679;-66
2022/11/03 03:49:05;;;;;;;54.28;25.80;;;3.50;99.90;;;;;;4390920;28;657496;-66
2022/11/03 03:51:54;;;;;;;59.00;26.07;;;3.40;99.90;;;;;;4415781;28;656984;-66
2022/11/03 03:54:41;;;;;;;65.53;29.97;;;3.40;99.90;;;;;;4392677;28;657715;-66
2022/11/03 03:57:29;;;;;;;66.60;29.97;;;3.40;99.90;;;;;;4409983;28;658017;-66
2022/11/03 04:00:18;;;;;;;65.80;29.73;;;3.30;99.90;;;;;;4389033;28;657676;-66
2022/11/03 04:03:05;;;;;;;54.80;28.57;;;3.30;99.90;;;;;;4387751;28;657371;-66
2022/11/03 04:05:53;;;;;;;67.33;30.63;;;3.30;99.90;;;;;;4410425;28;658321;-66
2022/11/03 04:08:42;;;;;;;68.43;32.00;;;3.30;99.90;;;;;;4392084;28;657638;-66
2022/11/03 04:23:49;;;;;;;56.17;27.17;;;3.00;99.90;;;;;;4387160;28;657945;-66
2022/11/03 04:26:36;;;;;;;56.77;28.77;;;3.00;99.90;;;;;;4389096;28;657844;-66
2022/11/03 04:29:24;;;;;;;65.90;27.57;;;3.00;99.90;;;;;;4407645;28;657341;-66
2022/11/03 04:32:14;;;;;;;51.13;26.97;;;3.00;99.90;;;;;;4387106;28;658205;-66
2022/11/03 04:35:01;;;;;;;61.47;27.57;;;3.00;99.90;;;;;;4386797;28;658131;-66
2022/11/03 04:37:50;;;;;;;58.43;28.63;;;2.90;99.90;;;;;;4405183;28;658107;-66
2022/11/03 04:40:39;;;;;;;58.37;27.30;;;2.90;99.90;;;;;;4381448;28;658565;-66
2022/11/03 04:43:31;;;;;;;56.20;26.53;;;2.90;99.90;;;;;;4383144;28;657594;-66
2022/11/03 04:46:23;;;;;;;56.30;26.53;;;2.90;99.90;;;;;;4390097;28;658313;-66
2022/11/03 04:49:12;;;;;;;58.27;28.50;;;2.80;99.90;;;;;;4361174;28;657676;-66
2022/11/03 04:51:59;;;;;;;59.73;29.00;;;2.80;99.90;;;;;;4398826;28;657776;-66
2022/11/03 04:54:47;;;;;;;60.38;29.45;;;2.90;99.90;;;;;;4376039;28;657933;-66
2022/11/03 04:57:35;;;;;;;65.60;33.50;;;2.80;99.90;;;;;;4400597;28;657587;-66
2022/11/03 05:00:22;;;;;;;63.50;32.53;;;2.70;99.90;;;;;;4379072;28;658524;-66
2022/11/03 05:03:10;;;;;;;59.47;31.17;;;2.80;99.90;;;;;;4400144;28;657747;-66
2022/11/03 05:05:58;;;;;;;63.67;32.40;;;2.80;99.90;;;;;;4404350;28;658571;-66
2022/11/03 05:08:46;;;;;;;65.80;32.10;;;2.70;99.90;;;;;;4401016;28;657858;-67
2022/11/03 05:11:36;;;;;;;68.93;34.17;;;2.60;99.90;;;;;;4408323;28;657775;-66
2022/11/03 05:14:26;;;;;;;72.50;34.53;;;2.70;99.90;;;;;;4371522;28;658242;-66
2022/11/03 05:17:21;;;;;;;64.10;32.67;;;2.70;99.90;;;;;;4382850;28;658246;-66
2022/11/03 05:20:20;;;;;;;59.43;31.77;;;2.60;99.90;;;;;;4380175;28;657786;-66
2022/11/03 05:23:09;;;;;;;60.60;32.40;;;2.50;99.90;;;;;;4356292;28;658483;-66
2022/11/03 05:25:57;;;;;;;66.87;34.73;;;2.50;99.90;;;;;;4385691;28;657878;-66
2022/11/03 05:28:46;;;;;;;64.77;34.30;;;2.50;99.90;;;;;;4402269;28;658097;-66
2022/11/03 05:31:35;;;;;;;71.73;34.30;;;2.50;99.90;;;;;;4408199;28;659366;-66
2022/11/03 05:34:32;;;;;;;65.70;35.00;;;2.60;99.90;;;;;;4382785;28;658755;-66
2022/11/03 05:37:25;;;;;;;65.70;37.03;;;2.60;99.90;;;;;;4380150;28;658167;-66
2022/11/03 05:40:16;;;;;;;60.43;31.20;;;2.60;99.90;;;;;;4365276;28;658322;-66
2022/11/03 05:43:04;;;;;;;59.93;31.70;;;2.50;99.90;;;;;;4377028;28;658157;-66
2022/11/03 05:45:53;;;;;;;58.77;30.40;;;2.60;99.90;;;;;;4391658;28;657759;-66
2022/11/03 05:48:43;;;;;;;57.80;29.80;;;2.60;99.90;;;;;;4382261;28;657567;-66
2022/11/03 05:51:33;;;;;;;63.90;30.87;;;2.60;99.90;;;;;;4385939;28;658546;-66
2022/11/03 05:54:22;;;;;;;58.10;30.10;;;2.60;99.90;;;;;;4392524;28;657408;-66
2022/11/03 05:57:10;;;;;;;55.90;29.27;;;2.70;99.90;;;;;;4400272;28;658763;-66
2022/11/03 05:59:58;;;;;;;63.93;31.57;;;2.70;99.90;;;;;;4386162;28;658491;-66
2022/11/03 06:02:45;;;;;;;57.35;30.40;;;2.80;99.90;;;;;;4389029;28;657471;-66
2022/11/03 06:05:34;;;;;;;65.17;32.90;;;2.80;99.90;;;;;;4415510;28;657491;-66
2022/11/03 06:08:22;;;;;;;77.40;34.73;;;2.90;99.90;;;;;;4387090;28;657186;-67
2022/11/03 06:11:09;;;;;;;74.63;33.53;;;3.00;99.90;;;;;;4410331;28;657170;-66
2022/11/03 06:13:57;;;;;;;70.77;33.17;;;3.10;99.90;;;;;;4381921;28;657673;-66
2022/11/03 06:16:44;;;;;;;63.17;32.07;;;3.10;99.90;;;;;;4402279;28;657186;-66
2022/11/03 06:19:32;;;;;;;63.00;31.13;;;3.20;99.90;;;;;;4379419;28;657792;-66
2022/11/03 06:22:24;;;;;;;63.07;29.93;;;3.20;99.90;;;;;;4406849;28;658141;-66
2022/11/03 06:25:15;;;;;;;60.47;30.90;;;3.20;99.90;;;;;;4392730;28;657573;-66
2022/11/03 06:28:03;;;;;;;63.47;31.30;;;3.40;99.90;;;;;;4381244;28;659096;-66
2022/11/03 06:30:51;;;;;;;59.23;30.13;;;3.50;99.90;;;;;;4391299;28;658225;-66
2022/11/03 06:33:38;;;;;;;59.40;28.77;;;3.60;99.90;;;;;;4405978;28;658025;-66
2022/11/03 06:36:27;;;;;;;64.60;29.20;;;3.80;99.90;;;;;;4392121;28;657375;-66
2022/11/03 06:39:18;;;;;;;55.87;28.00;;;3.90;99.90;;;;;;4414922;28;657597;-66
2022/11/03 06:42:12;;;;;;;61.37;28.67;;;4.00;99.90;;;;;;4370817;28;657629;-66
2022/11/03 06:44:59;;;;;;;53.83;28.37;;;4.20;99.90;;;;;;4378026;28;657733;-66
2022/11/03 06:47:46;;;;;;;54.93;29.70;;;4.30;99.90;;;;;;4388163;28;657646;-66
2022/11/03 06:50:33;;;;;;;51.03;27.20;;;4.40;99.90;;;;;;4410650;28;658407;-66
2022/11/03 06:53:22;;;;;;;51.93;26.70;;;4.50;99.90;;;;;;4389601;28;657998;-66
2022/11/03 06:56:12;;;;;;;56.33;28.50;;;4.60;99.90;;;;;;4409276;28;658054;-71
2022/11/03 06:58:59;;;;;;;72.30;32.73;;;4.90;99.90;;;;;;4375639;28;657846;-72
2022/11/03 07:01:47;;;;;;;93.67;37.87;;;5.00;99.90;;;;;;4382270;28;657570;-71
2022/11/03 07:04:34;;;;;;;76.77;35.40;;;5.20;99.90;;;;;;4411312;28;657465;-71
2022/11/03 07:07:21;;;;;;;119.60;45.57;;;5.30;99.90;;;;;;4390703;28;657888;-72
2022/11/03 07:10:08;;;;;;;115.63;48.27;;;5.40;99.90;;;;;;4407888;28;659264;-72
2022/11/03 07:12:59;;;;;;;109.20;44.40;;;5.70;99.90;;;;;;4388291;28;658974;-72
2022/11/03 07:15:46;;;;;;;121.00;54.23;;;5.80;99.90;;;;;;4388726;28;658763;-71
2022/11/03 07:18:35;;;;;;;144.90;58.27;;;6.10;99.90;;;;;;4407586;28;659415;-71
2022/11/03 07:21:32;;;;;;;134.43;58.23;;;6.20;99.90;;;;;;4388787;28;659443;-71
2022/11/03 07:24:22;;;;;;;124.10;53.65;;;6.50;99.90;;;;;;4378828;28;659281;-72
2022/11/03 07:27:14;;;;;;;111.27;46.33;;;6.70;99.90;;;;;;4387415;28;658830;-71
2022/11/03 07:30:14;;;;;;;93.30;42.90;;;6.90;99.90;;;;;;4388029;28;658786;-72
2022/11/03 07:33:09;;;;;;;105.47;42.90;;;7.20;99.90;;;;;;4360595;28;658305;-72
2022/11/03 07:35:57;;;;;;;87.60;39.47;;;7.50;99.90;;;;;;4388491;28;658364;-72
2022/11/03 07:38:44;;;;;;;71.37;32.40;;;7.70;99.90;;;;;;4407379;28;657486;-72
2022/11/03 07:41:32;;;;;;;71.47;32.00;;;7.90;99.90;;;;;;4390958;28;657485;-72
2022/11/03 07:44:20;;;;;;;63.40;31.00;;;8.10;99.90;;;;;;4398910;28;657682;-72
2022/11/03 07:47:12;;;;;;;65.17;31.80;;;8.30;99.90;;;;;;4388379;28;659326;-72
2022/11/03 07:49:59;;;;;;;71.72;31.60;;;8.50;99.90;;;;;;4383431;28;657851;-72
2022/11/03 07:52:46;;;;;;;65.67;32.30;;;8.80;99.90;;;;;;4386500;28;657880;-73
2022/11/03 07:55:33;;;;;;;67.07;30.90;;;9.10;99.90;;;;;;4406458;28;658615;-71
2022/11/03 07:58:25;;;;;;;80.17;35.07;;;9.40;99.90;;;;;;4390349;28;657798;-72
2022/11/03 08:01:26;;;;;;;77.63;37.07;;;9.90;99.90;;;;;;4387688;28;658305;-72
2022/11/03 08:04:19;;;;;;;69.87;34.27;;;10.60;99.90;;;;;;4381862;28;658249;-72
2022/11/03 08:07:07;;;;;;;75.53;35.03;;;11.00;99.90;;;;;;4363706;28;658253;-72
2022/11/03 08:09:54;;;;;;;66.77;32.17;;;11.60;99.90;;;;;;4402362;28;658484;-72
2022/11/03 08:12:41;;;;;;;52.20;25.80;;;12.10;99.90;;;;;;4387110;28;658576;-71
2022/11/03 08:15:28;;;;;;;50.63;25.93;;;12.20;99.90;;;;;;4404614;28;659541;-73
2022/11/03 08:18:15;;;;;;;48.37;23.13;;;12.60;99.90;;;;;;4388276;28;659011;-72
2022/11/03 08:21:04;;;;;;;44.40;19.73;;;12.90;99.90;;;;;;4407770;28;659555;-72
2022/11/03 08:23:51;;;;;;;38.30;17.53;;;12.80;99.90;;;;;;4388440;28;658487;-71
2022/11/03 08:26:38;;;;;;;32.17;14.33;;;13.10;99.90;;;;;;4404728;28;659349;-72
2022/11/03 08:29:26;;;;;;;39.03;15.83;;;13.10;99.90;;;;;;4386044;28;658633;-70
2022/11/03 08:32:13;;;;;;;34.43;13.97;;;13.70;99.90;;;;;;4406651;28;659235;-72
2022/11/03 08:35:00;;;;;;;25.92;10.55;;;13.80;99.90;;;;;;4377055;28;658904;-71
2022/11/03 08:37:49;;;;;;;31.13;11.43;;;14.20;99.90;;;;;;4409519;28;658257;-72
2022/11/03 08:40:36;;;;;;;25.43;10.13;;;14.40;99.90;;;;;;4381616;28;658883;-72
2022/11/03 08:43:23;;;;;;;22.03;9.27;;;14.40;99.90;;;;;;4405483;28;659896;-72
2022/11/03 08:46:10;;;;;;;21.87;8.77;;;14.40;99.90;;;;;;4384569;28;657839;-71
2022/11/03 08:48:57;;;;;;;22.70;9.97;;;14.60;99.90;;;;;;4405615;28;657251;-72
2022/11/03 08:51:44;;;;;;;21.90;8.37;;;14.90;99.90;;;;;;4402143;28;657251;-72
2022/11/03 08:54:33;;;;;;;22.43;8.67;;;15.20;99.90;;;;;;4383438;28;658743;-73
2022/11/03 08:57:20;;;;;;;22.30;8.85;;;14.70;99.90;;;;;;4384385;28;657342;-71
2022/11/03 09:00:08;;;;;;;21.30;8.47;;;15.00;99.90;;;;;;4405764;28;658717;-72
2022/11/03 09:02:56;;;;;;;27.43;9.60;;;15.20;99.90;;;;;;4379859;28;657164;-71
2022/11/03 09:05:43;;;;;;;21.97;9.00;;;15.50;99.90;;;;;;4404267;28;657509;-72
2022/11/03 09:08:30;;;;;;;22.67;7.88;;;15.80;99.90;;;;;;4388263;28;657854;-70
2022/11/03 09:11:19;;;;;;;17.73;6.93;;;16.30;96.50;;;;;;4399546;28;659214;-72
2022/11/03 09:14:06;;;;;;;21.57;7.77;;;16.00;98.40;;;;;;4385150;28;658563;-71
2022/11/03 09:16:53;;;;;;;18.23;7.20;;;16.20;97.60;;;;;;4405854;28;657875;-73
2022/11/03 09:19:40;;;;;;;16.73;6.10;;;15.90;96.50;;;;;;4382254;28;657737;-71
2022/11/03 09:22:27;;;;;;;20.63;6.70;;;15.90;98.50;;;;;;4405398;28;657458;-71
2022/11/03 09:25:15;;;;;;;18.50;6.33;;;16.80;96.00;;;;;;4403249;28;657845;-71
2022/11/03 09:28:04;;;;;;;11.82;5.75;;;17.10;94.70;;;;;;4406891;28;659183;-71
2022/11/03 09:30:51;;;;;;;21.67;5.90;;;17.40;90.30;;;;;;4379253;28;658128;-72
2022/11/03 09:33:38;;;;;;;16.70;5.97;;;17.50;88.80;;;;;;4405413;28;657818;-72
2022/11/03 09:36:26;;;;;;;16.07;6.63;;;17.40;88.00;;;;;;4385634;28;657724;-72
2022/11/03 09:39:13;;;;;;;20.60;6.77;;;17.10;91.20;;;;;;4406804;28;658401;-72
2022/11/03 09:42:02;;;;;;;24.67;6.50;;;17.10;90.50;;;;;;4390137;28;657488;-70
2022/11/03 09:44:52;;;;;;;16.77;5.57;;;17.60;87.90;;;;;;4409720;28;657392;-72
2022/11/03 09:47:40;;;;;;;20.27;5.27;;;18.00;85.10;;;;;;4375151;28;657702;-72
2022/11/03 09:50:27;;;;;;;11.53;4.60;;;18.80;80.70;;;;;;4383980;28;657841;-72
2022/11/03 09:53:14;;;;;;;13.23;4.37;;;19.40;71.00;;;;;;4405275;28;657632;-71
2022/11/03 09:56:01;;;;;;;15.47;5.77;;;18.50;66.60;;;;;;4378325;28;657731;-71
2022/11/03 09:58:49;;;;;;;13.87;5.47;;;19.20;69.80;;;;;;4403598;28;658344;-72
2022/11/03 10:01:37;;;;;;;20.60;4.77;;;19.20;68.40;;;;;;4385689;28;657765;-73
2022/11/03 10:04:27;;;;;;;14.77;4.77;;;19.60;66.50;;;;;;4403052;28;657552;-71
2022/11/03 10:07:14;;;;;;;12.30;4.32;;;19.60;63.70;;;;;;4392422;28;657245;-73
2022/11/03 10:10:01;;;;;;;13.23;5.07;;;19.00;64.10;;;;;;4385572;28;659305;-72
2022/11/03 10:12:50;;;;;;;16.80;4.50;;;19.60;63.70;;;;;;4401827;28;658234;-72
2022/11/03 10:15:37;;;;;;;13.87;4.40;;;19.60;62.80;;;;;;4385851;28;658449;-72
2022/11/03 10:18:26;;;;;;;13.23;3.77;;;20.00;62.50;;;;;;4398337;28;657723;-71
2022/11/03 10:21:15;;;;;;;9.13;3.70;;;19.90;61.50;;;;;;4407992;28;658025;-72
2022/11/03 10:24:02;;;;;;;9.27;3.43;;;20.50;57.20;;;;;;4383806;28;657192;-72
2022/11/03 10:26:50;;;;;;;9.00;3.90;;;21.20;56.40;;;;;;4404748;28;656741;-72
2022/11/03 10:29:37;;;;;;;11.70;4.10;;;21.10;55.20;;;;;;4387200;28;657626;-72
2022/11/03 10:32:33;;;;;;;11.87;3.80;;;20.60;54.90;;;;;;4400107;28;658097;-72
2022/11/03 10:35:34;;;;;;;9.27;3.40;;;19.90;56.90;;;;;;4371243;28;657779;-71
2022/11/03 10:38:26;;;;;;;10.37;4.10;;;20.10;58.00;;;;;;4389456;28;657140;-71
2022/11/03 10:41:16;;;;;;;12.43;4.57;;;19.80;57.00;;;;;;4383792;28;658144;-73
2022/11/03 10:44:06;;;;;;;9.80;3.87;;;20.00;59.30;;;;;;4384197;28;658041;-72
2022/11/03 10:46:57;;;;;;;10.15;4.18;;;20.30;57.60;;;;;;4383765;28;656806;-72
2022/11/03 10:49:44;;;;;;;11.83;4.13;;;20.30;56.80;;;;;;4379488;28;657849;-73
2022/11/03 10:52:33;;;;;;;14.40;4.20;;;20.80;56.70;;;;;;4383318;28;657720;-71
2022/11/03 10:55:21;;;;;;;12.27;4.35;;;21.20;55.80;;;;;;4386283;28;658094;-70
2022/11/03 10:58:08;;;;;;;15.13;4.33;;;21.10;54.90;;;;;;4407683;28;659092;-73
2022/11/03 11:00:55;;;;;;;13.07;4.30;;;21.30;54.80;;;;;;4387788;28;657243;-72
2022/11/03 11:03:43;;;;;;;15.70;4.60;;;21.50;55.30;;;;;;4406165;28;658873;-73
2022/11/03 11:06:31;;;;;;;7.47;3.63;;;22.20;53.70;;;;;;4383471;28;657903;-72
2022/11/03 11:09:22;;;;;;;10.60;4.27;;;21.70;53.60;;;;;;4409058;28;656786;-73
2022/11/03 11:12:15;;;;;;;8.67;3.83;;;21.10;55.50;;;;;;4383711;28;658017;-72
2022/11/03 11:15:06;;;;;;;13.77;4.40;;;20.90;56.20;;;;;;4357376;28;656776;-73
2022/11/03 11:17:53;;;;;;;14.53;4.23;;;21.70;56.90;;;;;;4384325;28;657698;-73
2022/11/03 11:20:41;;;;;;;12.00;4.00;;;22.50;54.20;;;;;;4391019;28;657594;-71
2022/11/03 11:23:51;;;;;;;14.18;3.90;;;22.70;52.40;;;;;;4409174;28;658556;-72
2022/11/03 11:26:39;;;;;;;12.40;4.47;;;21.50;53.00;;;;;;4384283;28;658349;-72
2022/11/03 11:29:36;;;;;;;17.92;4.07;;;21.80;53.70;;;;;;4384185;28;658759;-73
2022/11/03 11:32:50;;;;;;;14.50;3.92;;;22.10;53.10;;;;;;4382144;28;658306;-71
2022/11/03 11:36:28;;;;;;;13.43;4.05;;;23.10;51.40;;;;;;4359521;28;657570;-73
2022/11/03 11:39:43;;;;;;;13.68;3.45;;;23.70;51.90;;;;;;4361321;28;657508;-71
2022/11/03 11:42:32;;;;;;;9.38;3.80;;;23.80;49.80;;;;;;4362293;28;657791;-71
2022/11/03 11:45:36;;;;;;;10.45;3.83;;;22.90;49.10;;;;;;4408635;28;656863;-73
2022/11/03 11:48:23;;;;;;;13.52;3.63;;;23.80;48.70;;;;;;4382445;28;657950;-73
2022/11/03 11:51:11;;;;;;;10.20;3.17;;;24.50;45.10;;;;;;4388284;28;657870;-71
2022/11/03 11:53:58;;;;;;;11.93;3.35;;;24.50;44.30;;;;;;4408814;28;658230;-73
2022/11/03 11:56:47;;;;;;;10.20;3.10;;;23.60;45.40;;;;;;4382761;28;657600;-71
2022/11/03 11:59:36;;;;;;;8.07;3.13;;;24.50;45.80;;;;;;4400042;28;657341;-72
2022/11/03 12:02:24;;;;;;;9.85;3.70;;;23.80;43.20;;;;;;4383314;28;657648;-73
2022/11/03 12:05:18;;;;;;;10.45;4.50;;;24.40;42.90;;;;;;4383530;28;656415;-74
2022/11/03 12:08:17;;;;;;;11.52;4.57;;;24.60;41.60;;;;;;4364349;28;657620;-72
2022/11/03 12:11:05;;;;;;;27.95;10.02;;;25.30;41.20;;;;;;4383531;28;658636;-72
2022/11/03 12:13:52;;;;;;;26.70;10.77;;;25.70;41.00;;;;;;4381953;28;659761;-73
2022/11/03 12:16:42;;;;;;;19.45;6.55;;;26.50;39.60;;;;;;4397965;28;658717;-71
2022/11/03 12:19:34;;;;;;;14.45;5.22;;;26.40;41.20;;;;;;4410444;28;658209;-74
2022/11/03 12:22:40;;;;;;;17.57;5.87;;;27.00;39.20;;;;;;4359419;28;657712;-73
2022/11/03 12:25:35;;;;;;;13.50;5.75;;;26.40;39.80;;;;;;4384386;28;657977;-72
2022/11/03 12:28:31;;;;;;;12.15;4.47;;;26.50;38.60;;;;;;4358741;28;658704;-71
2022/11/03 12:31:18;;;;;;;15.45;4.57;;;26.30;39.90;;;;;;4380221;28;659384;-73
2022/11/03 12:34:07;;;;;;;12.82;4.80;;;25.90;37.80;;;;;;4384003;28;657799;-72
2022/11/03 12:36:54;;;;;;;15.88;5.45;;;25.00;39.90;;;;;;4404165;28;657634;-73
2022/11/03 12:39:41;;;;;;;13.63;5.28;;;25.20;41.20;;;;;;4387891;28;658113;-73
2022/11/03 12:42:28;;;;;;;13.35;5.00;;;24.40;42.80;;;;;;4404410;28;659185;-72
2022/11/03 12:45:15;;;;;;;12.88;4.22;;;23.40;43.10;;;;;;4387520;28;657684;-71
2022/11/03 12:48:03;;;;;;;9.50;4.03;;;22.30;44.70;;;;;;4399891;28;659834;-71
2022/11/03 12:50:52;;;;;;;14.75;4.95;;;22.00;46.00;;;;;;4388153;28;656820;-72
2022/11/03 12:53:39;;;;;;;17.42;4.95;;;22.50;46.70;;;;;;4407321;28;657121;-71
2022/11/03 12:56:26;;;;;;;22.55;5.28;;;23.70;45.10;;;;;;4383505;28;657554;-71
2022/11/03 12:59:14;;;;;;;10.95;4.22;;;25.20;42.90;;;;;;4404259;28;658197;-72
2022/11/03 13:02:01;;;;;;;9.27;3.53;;;26.30;41.70;;;;;;4387734;28;658096;-72
2022/11/03 13:04:48;;;;;;;10.07;2.80;;;27.00;39.60;;;;;;4406288;28;658144;-71
2022/11/03 13:07:37;;;;;;;11.27;3.30;;;26.70;39.20;;;;;;4383557;28;658110;-71
2022/11/03 13:10:24;;;;;;;7.13;3.30;;;26.80;39.20;;;;;;4401173;28;657591;-71
2022/11/03 13:13:11;;;;;;;15.57;4.00;;;27.50;38.40;;;;;;4381189;28;656853;-71
2022/11/03 13:15:58;;;;;;;14.35;4.70;;;28.10;37.00;;;;;;4399872;28;658197;-73
2022/11/03 13:18:45;;;;;;;15.50;4.40;;;28.40;36.70;;;;;;4387087;28;658492;-71
2022/11/03 13:21:32;;;;;;;13.30;3.45;;;28.60;37.00;;;;;;4409175;28;658353;-71
2022/11/03 13:24:22;;;;;;;13.82;5.28;;;29.10;35.50;;;;;;4404764;28;658211;-71
2022/11/03 13:27:09;;;;;;;16.80;5.40;;;28.50;35.40;;;;;;4404875;28;658332;-72
2022/11/03 13:29:56;;;;;;;18.08;6.55;;;28.60;36.00;;;;;;4383840;28;657411;-71
2022/11/03 13:32:43;;;;;;;12.25;4.07;;;28.00;36.40;;;;;;4401840;28;658985;-72
2022/11/03 13:35:30;;;;;;;10.82;3.65;;;27.10;37.00;;;;;;4384071;28;657957;-71
2022/11/03 13:38:18;;;;;;;13.30;4.18;;;26.40;37.80;;;;;;4406180;28;658889;-72
2022/11/03 13:41:07;;;;;;;16.42;4.75;;;26.00;38.90;;;;;;4391642;28;657512;-71
2022/11/03 13:43:54;;;;;;;11.82;3.88;;;25.90;39.80;;;;;;4406329;28;657698;-71
2022/11/03 13:46:41;;;;;;;10.23;3.78;;;24.60;40.40;;;;;;4380904;28;658001;-71
2022/11/03 13:49:28;;;;;;;11.52;3.90;;;24.00;41.50;;;;;;4405889;28;658783;-71
2022/11/03 13:52:15;;;;;;;10.80;3.70;;;23.90;42.10;;;;;;4388960;28;657605;-71
2022/11/03 13:55:02;;;;;;;9.82;3.55;;;23.80;42.60;;;;;;4412106;28;659013;-71
2022/11/03 13:57:51;;;;;;;19.43;3.90;;;23.00;42.80;;;;;;4407458;28;656679;-71
2022/11/03 14:00:38;;;;;;;11.17;3.87;;;22.00;44.10;;;;;;4387534;28;658485;-71
2022/11/03 14:03:25;;;;;;;15.70;3.90;;;21.00;45.70;;;;;;4389056;28;657564;-71
2022/11/03 14:06:12;;;;;;;17.73;4.30;;;20.40;46.80;;;;;;4413225;28;659335;-72
2022/11/03 14:08:59;;;;;;;13.40;4.00;;;19.80;48.70;;;;;;4411156;28;657613;-71
2022/11/03 14:14:52;;;;;;;14.33;4.23;;;18.20;51.80;;;;;;4357876;28;658391;-71
2022/11/03 14:17:40;;;;;;;14.30;5.03;;;17.50;53.50;;;;;;4400819;28;659478;-71
2022/11/03 14:20:27;;;;;;;16.90;4.47;;;16.90;55.30;;;;;;4411779;28;657804;-72
2022/11/03 14:23:14;;;;;;;15.27;5.80;;;16.50;58.10;;;;;;4403297;28;657675;-71
2022/11/03 14:26:02;;;;;;;15.63;5.00;;;15.90;58.10;;;;;;4388966;28;657918;-70
2022/11/03 14:28:49;;;;;;;22.13;5.07;;;15.40;60.00;;;;;;4407152;28;657697;-71
2022/11/03 14:31:38;;;;;;;21.27;5.87;;;15.00;62.20;;;;;;4384179;28;657584;-72
2022/11/03 14:34:25;;;;;;;20.80;6.13;;;14.50;66.90;;;;;;4398996;28;657628;-71
2022/11/03 14:37:12;;;;;;;19.27;7.50;;;14.30;67.40;;;;;;4413186;28;658171;-70